Time;durP1;ratioP1;P1;durP2;ratioP2;P2;SDS_P1;SDS_P2;PMS_P1;PMS_P2;Temp;Humidity;BMP_temperature;BMP_pressure;BME280_temperature;BME280_humidity;BME280_pressure;Samples;Min_cycle;Max_cycle;Signal;HPM_P1;HPM_P2
2023/04/13 05:00:13;;;;;;;2.30;1.10;;;;;;;;;;1749676;28;20698;-68
2023/04/13 05:01:05;;;;;;;4.57;1.25;;;;;;;;;;1748975;28;20263;-68
2023/04/13 05:01:57;;;;;;;1.55;1.10;;;;;;;;;;1755414;28;20198;-68
2023/04/13 05:02:49;;;;;;;2.15;1.33;;;;;;;;;;1755377;28;20206;-69
2023/04/13 05:03:41;;;;;;;2.65;0.82;;;;;;;;;;1755361;28;20285;-69
2023/04/13 05:04:32;;;;;;;2.60;1.00;;;;;;;;;;1755470;28;20224;-69
2023/04/13 05:05:25;;;;;;;3.92;1.48;;;;;;;;;;1755292;28;20228;-69
2023/04/13 05:06:16;;;;;;;4.55;1.20;;;;;;;;;;1755052;28;20665;-69
2023/04/13 05:07:09;;;;;;;2.80;1.10;;;;;;;;;;1755213;28;20197;-69
2023/04/13 05:08:00;;;;;;;2.60;1.05;;;;;;;;;;1755229;28;20644;-69
2023/04/13 05:08:52;;;;;;;5.03;1.10;;;;;;;;;;1755309;28;20198;-69
2023/04/13 05:09:43;;;;;;;4.20;1.27;;;;;;;;;;1748959;28;20209;-69
2023/04/13 05:10:35;;;;;;;4.45;1.30;;;;;;;;;;1750241;28;20224;-69
2023/04/13 05:11:26;;;;;;;2.60;1.20;;;;;;;;;;1752372;28;20201;-69
2023/04/13 05:12:18;;;;;;;2.90;1.13;;;;;;;;;;1755147;28;20208;-68
2023/04/13 05:13:10;;;;;;;4.20;1.30;;;;;;;;;;1755394;28;20763;-68
2023/04/13 05:14:02;;;;;;;2.97;1.25;;;;;;;;;;1755164;28;20626;-68
2023/04/13 05:14:53;;;;;;;3.88;1.17;;;;;;;;;;1755254;28;20749;-68
2023/04/13 05:15:46;;;;;;;2.35;1.23;;;;;;;;;;1752652;28;20202;-68
2023/04/13 05:16:37;;;;;;;3.70;1.20;;;;;;;;;;1747992;28;20575;-68
2023/04/13 05:17:29;;;;;;;2.60;1.13;;;;;;;;;;1748127;28;20218;-68
2023/04/13 05:18:20;;;;;;;3.30;1.27;;;;;;;;;;1748176;28;20209;-68
2023/04/13 05:19:12;;;;;;;2.70;1.08;;;;;;;;;;1746506;28;20205;-69
2023/04/13 05:20:05;;;;;;;3.15;1.30;;;;;;;;;;1752929;28;20198;-68
2023/04/13 05:20:57;;;;;;;2.20;0.95;;;;;;;;;;1748808;28;20296;-68
2023/04/13 05:21:48;;;;;;;2.65;1.33;;;;;;;;;;1755128;28;20209;-68
2023/04/13 05:22:41;;;;;;;4.35;1.27;;;;;;;;;;1755187;28;20201;-68
2023/04/13 05:23:32;;;;;;;2.05;1.20;;;;;;;;;;1755154;28;20254;-68
2023/04/13 05:24:24;;;;;;;3.47;1.10;;;;;;;;;;1755105;28;20194;-68
2023/04/13 05:25:15;;;;;;;1.60;1.17;;;;;;;;;;1755192;28;20228;-68
2023/04/13 05:26:08;;;;;;;3.08;1.20;;;;;;;;;;1755186;28;20677;-68
2023/04/13 05:26:59;;;;;;;2.95;1.10;;;;;;;;;;1754633;28;20198;-68
2023/04/13 05:27:51;;;;;;;1.10;0.85;;;;;;;;;;1755136;28;20262;-69
2023/04/13 05:28:42;;;;;;;4.18;1.02;;;;;;;;;;1755151;28;20285;-69
2023/04/13 05:29:34;;;;;;;5.22;1.40;;;;;;;;;;1748910;28;20669;-69
2023/04/13 05:30:26;;;;;;;2.92;1.10;;;;;;;;;;1748038;28;20320;-69
2023/04/13 05:31:19;;;;;;;3.80;1.02;;;;;;;;;;1753015;28;20665;-69
2023/04/13 05:32:10;;;;;;;2.72;0.90;;;;;;;;;;1751187;28;20194;-68
2023/04/13 05:33:05;;;;;;;4.38;1.20;;;;;;;;;;1747811;28;20194;-69
2023/04/13 05:33:56;;;;;;;1.88;0.90;;;;;;;;;;1748177;28;20206;-69
2023/04/13 05:34:48;;;;;;;1.95;1.05;;;;;;;;;;1747910;28;20654;-69
2023/04/13 05:35:39;;;;;;;1.77;1.20;;;;;;;;;;1747918;28;20555;-69
2023/04/13 05:36:32;;;;;;;3.20;1.02;;;;;;;;;;1747885;28;20194;-69
2023/04/13 05:37:23;;;;;;;2.35;1.30;;;;;;;;;;1747928;28;20276;-69
2023/04/13 05:38:15;;;;;;;4.00;1.20;;;;;;;;;;1748237;28;20202;-68
2023/04/13 05:39:06;;;;;;;2.95;1.10;;;;;;;;;;1746895;28;20198;-69
2023/04/13 05:39:59;;;;;;;2.83;1.10;;;;;;;;;;1750343;28;20214;-69
2023/04/13 05:40:50;;;;;;;5.03;2.28;;;;;;;;;;1748706;28;20222;-70
2023/04/13 05:41:42;;;;;;;2.58;1.38;;;;;;;;;;1748361;28;20190;-68
2023/04/13 05:42:33;;;;;;;3.03;1.35;;;;;;;;;;1748170;28;20202;-67
2023/04/13 05:43:25;;;;;;;3.17;1.30;;;;;;;;;;1748028;28;20198;-68
2023/04/13 05:44:16;;;;;;;4.15;1.33;;;;;;;;;;1748216;28;20558;-67
2023/04/13 05:45:09;;;;;;;2.25;1.23;;;;;;;;;;1748071;28;20205;-68
2023/04/13 05:46:00;;;;;;;2.67;0.93;;;;;;;;;;1748076;28;20215;-68
2023/04/13 05:46:54;;;;;;;2.88;1.23;;;;;;;;;;1747817;28;20191;-68
2023/04/13 05:47:45;;;;;;;3.88;1.20;;;;;;;;;;1747996;28;20230;-67
2023/04/13 05:48:37;;;;;;;3.35;1.10;;;;;;;;;;1748051;28;20334;-68
2023/04/13 05:49:28;;;;;;;1.60;0.95;;;;;;;;;;1748107;28;20203;-68
2023/04/13 05:50:20;;;;;;;2.85;1.30;;;;;;;;;;1753800;28;20277;-68
2023/04/13 05:51:14;;;;;;;2.35;1.15;;;;;;;;;;1750403;28;20226;-69
2023/04/13 05:52:06;;;;;;;4.13;1.25;;;;;;;;;;1746510;28;20194;-68
2023/04/13 05:52:57;;;;;;;3.03;1.02;;;;;;;;;;1743791;28;20195;-68
2023/04/13 05:53:49;;;;;;;2.17;1.08;;;;;;;;;;1744557;28;20244;-68
2023/04/13 05:54:40;;;;;;;3.60;1.10;;;;;;;;;;1747925;28;20234;-68
2023/04/13 05:55:33;;;;;;;4.07;1.10;;;;;;;;;;1745969;28;20616;-69
2023/04/13 05:56:24;;;;;;;1.80;1.00;;;;;;;;;;1742987;28;20196;-68
2023/04/13 05:57:19;;;;;;;2.50;1.00;;;;;;;;;;1744840;28;20198;-68
2023/04/13 05:58:10;;;;;;;1.90;1.10;;;;;;;;;;1743071;28;20203;-68
2023/04/13 05:59:03;;;;;;;4.03;1.67;;;;;;;;;;1741291;28;20712;-69
2023/04/13 05:59:54;;;;;;;1.55;0.90;;;;;;;;;;1751337;28;20198;-69
2023/04/13 06:00:46;;;;;;;3.90;1.40;;;;;;;;;;1748767;28;20251;-68
2023/04/13 06:01:37;;;;;;;2.72;1.10;;;;;;;;;;1741126;28;20226;-68
2023/04/13 06:02:31;;;;;;;2.10;1.10;;;;;;;;;;1742319;28;20207;-68
2023/04/13 06:03:24;;;;;;;5.00;1.40;;;;;;;;;;1747975;28;20235;-68
2023/04/13 06:04:16;;;;;;;4.72;1.63;;;;;;;;;;1747870;28;20976;-68
2023/04/13 06:05:12;;;;;;;2.75;1.00;;;;;;;;;;1742891;28;20264;-69
2023/04/13 06:06:05;;;;;;;4.10;1.42;;;;;;;;;;1745744;28;20191;-69
2023/04/13 06:06:56;;;;;;;3.08;1.40;;;;;;;;;;1746583;28;20202;-68
2023/04/13 06:07:49;;;;;;;3.20;1.27;;;;;;;;;;1747623;28;20308;-68
2023/04/13 06:08:40;;;;;;;2.40;1.38;;;;;;;;;;1741571;28;20210;-68
2023/04/13 06:09:32;;;;;;;2.60;1.30;;;;;;;;;;1743229;28;20544;-68
2023/04/13 06:10:23;;;;;;;6.80;1.63;;;;;;;;;;1744235;28;21938;-68
2023/04/13 06:11:15;;;;;;;2.90;1.45;;;;;;;;;;1747818;28;20247;-68
2023/04/13 06:12:07;;;;;;;3.55;1.20;;;;;;;;;;1747572;28;20225;-68
2023/04/13 06:12:59;;;;;;;2.30;1.30;;;;;;;;;;1746707;28;20244;-68
2023/04/13 06:13:50;;;;;;;2.80;1.13;;;;;;;;;;1747745;28;20210;-68
2023/04/13 06:14:43;;;;;;;2.25;1.42;;;;;;;;;;1747611;28;20198;-68
2023/04/13 06:15:37;;;;;;;4.50;1.40;;;;;;;;;;1747890;28;20483;-68
2023/04/13 06:16:29;;;;;;;4.30;1.20;;;;;;;;;;1747154;28;20209;-68
2023/04/13 06:17:20;;;;;;;2.88;1.20;;;;;;;;;;1747603;28;20210;-68
2023/04/13 06:18:13;;;;;;;4.35;1.05;;;;;;;;;;1747741;28;20206;-68
2023/04/13 06:19:04;;;;;;;4.03;1.20;;;;;;;;;;1747496;28;20568;-68
2023/04/13 06:19:57;;;;;;;7.60;1.20;;;;;;;;;;1747724;28;20223;-68
2023/04/13 06:20:48;;;;;;;2.30;1.52;;;;;;;;;;1747661;28;20218;-68
2023/04/13 06:21:40;;;;;;;2.10;1.15;;;;;;;;;;1747620;28;20209;-68
2023/04/13 06:22:31;;;;;;;3.95;1.10;;;;;;;;;;1747728;28;20202;-68
2023/04/13 06:23:23;;;;;;;2.28;1.20;;;;;;;;;;1747658;28;20205;-68
2023/04/13 06:24:14;;;;;;;4.15;1.30;;;;;;;;;;1740890;28;20205;-68
2023/04/13 06:25:07;;;;;;;2.58;1.20;;;;;;;;;;1740841;28;20209;-68
2023/04/13 06:25:58;;;;;;;1.60;1.08;;;;;;;;;;1740685;28;20225;-68
2023/04/13 06:26:51;;;;;;;2.58;1.30;;;;;;;;;;1739965;28;20712;-68
2023/04/13 06:27:42;;;;;;;2.40;1.20;;;;;;;;;;1740797;28;20286;-68
2023/04/13 06:28:34;;;;;;;4.45;1.42;;;;;;;;;;1740964;28;20249;-68
2023/04/13 06:29:26;;;;;;;2.85;1.10;;;;;;;;;;1747294;28;20206;-68
2023/04/13 06:30:18;;;;;;;4.28;1.13;;;;;;;;;;1747598;28;20226;-68
2023/04/13 06:31:11;;;;;;;2.65;1.52;;;;;;;;;;1747809;28;20206;-68
2023/04/13 06:32:03;;;;;;;1.83;0.85;;;;;;;;;;1747691;28;20194;-68
2023/04/13 06:32:54;;;;;;;5.28;1.30;;;;;;;;;;1747685;28;20195;-68
2023/04/13 06:33:48;;;;;;;2.83;1.45;;;;;;;;;;1747710;28;20742;-68
2023/04/13 06:34:40;;;;;;;4.05;1.00;;;;;;;;;;1747751;28;20563;-68
2023/04/13 06:35:32;;;;;;;3.25;1.10;;;;;;;;;;1747654;28;20654;-68
2023/04/13 06:36:24;;;;;;;3.05;1.25;;;;;;;;;;1746988;28;20206;-68
2023/04/13 06:37:17;;;;;;;2.45;1.20;;;;;;;;;;1747671;28;20214;-68
2023/04/13 06:38:08;;;;;;;4.60;1.50;;;;;;;;;;1747654;28;20221;-68
2023/04/13 06:39:01;;;;;;;6.00;1.95;;;;;;;;;;1747361;28;20561;-68
2023/04/13 06:39:52;;;;;;;3.42;1.20;;;;;;;;;;1747733;28;20555;-68
2023/04/13 06:40:44;;;;;;;6.18;1.98;;;;;;;;;;1747660;28;20218;-68
2023/04/13 06:41:35;;;;;;;5.60;1.10;;;;;;;;;;1747741;28;20944;-68
2023/04/13 06:42:27;;;;;;;2.67;1.13;;;;;;;;;;1747580;28;20718;-68
2023/04/13 06:43:18;;;;;;;4.10;1.70;;;;;;;;;;1747605;28;20198;-68
2023/04/13 06:44:11;;;;;;;2.70;1.30;;;;;;;;;;1747701;28;20560;-68
2023/04/13 06:45:02;;;;;;;7.00;1.08;;;;;;;;;;1747615;28;20221;-68
2023/04/13 06:45:58;;;;;;;2.92;1.27;;;;;;;;;;1747604;28;20210;-68
2023/04/13 06:46:49;;;;;;;2.45;1.00;;;;;;;;;;1746752;28;20255;-68
2023/04/13 06:47:41;;;;;;;3.75;1.25;;;;;;;;;;1747655;28;20198;-68
2023/04/13 06:48:32;;;;;;;2.28;0.95;;;;;;;;;;1747571;28;20202;-68
2023/04/13 06:49:26;;;;;;;2.05;0.90;;;;;;;;;;1747230;28;20577;-68
2023/04/13 06:50:17;;;;;;;3.58;1.23;;;;;;;;;;1747565;28;20241;-68
2023/04/13 06:51:10;;;;;;;5.07;1.63;;;;;;;;;;1747571;28;20202;-68
2023/04/13 06:52:01;;;;;;;3.33;1.17;;;;;;;;;;1747568;28;20676;-68
2023/04/13 06:52:53;;;;;;;2.95;1.42;;;;;;;;;;1747683;28;20658;-68
2023/04/13 06:53:44;;;;;;;2.15;1.10;;;;;;;;;;1747524;28;20790;-68
2023/04/13 06:54:36;;;;;;;2.63;1.60;;;;;;;;;;1747567;28;20332;-68
2023/04/13 06:55:28;;;;;;;3.40;1.40;;;;;;;;;;1745632;28;20195;-68
2023/04/13 06:56:20;;;;;;;3.40;1.30;;;;;;;;;;1746607;28;20202;-68
2023/04/13 06:57:12;;;;;;;3.05;1.20;;;;;;;;;;1747588;28;20229;-67
2023/04/13 06:58:04;;;;;;;2.15;1.75;;;;;;;;;;1747514;28;20235;-67
2023/04/13 06:58:59;;;;;;;6.43;1.77;;;;;;;;;;1747302;28;20759;-68
2023/04/13 06:59:51;;;;;;;4.88;1.48;;;;;;;;;;1747870;28;20214;-68
2023/04/13 07:00:43;;;;;;;3.53;1.17;;;;;;;;;;1747425;28;20219;-68
2023/04/13 07:01:35;;;;;;;3.60;1.30;;;;;;;;;;1747566;28;20202;-68
2023/04/13 07:02:27;;;;;;;4.50;1.30;;;;;;;;;;1747675;28;20208;-68
2023/04/13 07:03:18;;;;;;;2.92;1.38;;;;;;;;;;1741283;28;20211;-68
2023/04/13 07:04:10;;;;;;;11.65;2.03;;;;;;;;;;1739920;28;20200;-68
2023/04/13 07:05:03;;;;;;;2.92;1.40;;;;;;;;;;1740620;28;20246;-68
2023/04/13 07:05:56;;;;;;;3.38;1.20;;;;;;;;;;1740145;28;20207;-68
2023/04/13 07:06:47;;;;;;;4.30;1.55;;;;;;;;;;1739822;28;20697;-68
2023/04/13 07:07:39;;;;;;;3.00;1.23;;;;;;;;;;1739934;28;20199;-68
2023/04/13 07:08:31;;;;;;;2.10;1.27;;;;;;;;;;1745942;28;20195;-68
2023/04/13 07:09:23;;;;;;;2.63;1.60;;;;;;;;;;1747573;28;20215;-68
2023/04/13 07:10:14;;;;;;;3.67;1.40;;;;;;;;;;1746805;28;20685;-68
2023/04/13 07:11:06;;;;;;;2.72;1.30;;;;;;;;;;1746600;28;20200;-68
2023/04/13 07:12:02;;;;;;;2.70;1.15;;;;;;;;;;1747549;28;20271;-68
2023/04/13 07:12:54;;;;;;;3.42;1.20;;;;;;;;;;1747119;28;20642;-68
2023/04/13 07:13:45;;;;;;;2.13;1.20;;;;;;;;;;1747565;28;20206;-68
2023/04/13 07:14:38;;;;;;;3.78;1.33;;;;;;;;;;1746805;28;20194;-68
2023/04/13 07:15:29;;;;;;;3.40;1.50;;;;;;;;;;1746901;28;20576;-68
2023/04/13 07:16:22;;;;;;;4.25;1.90;;;;;;;;;;1746180;28;20212;-67
2023/04/13 07:17:13;;;;;;;2.55;1.45;;;;;;;;;;1747509;28;20198;-68
2023/04/13 07:18:05;;;;;;;5.43;1.65;;;;;;;;;;1747320;28;20739;-68
2023/04/13 07:18:59;;;;;;;2.67;1.58;;;;;;;;;;1747694;28;20692;-68
2023/04/13 07:19:51;;;;;;;3.97;1.92;;;;;;;;;;1747434;28;20600;-68
2023/04/13 07:20:44;;;;;;;3.22;1.33;;;;;;;;;;1746796;28;20636;-68
2023/04/13 07:21:36;;;;;;;2.13;1.17;;;;;;;;;;1747548;28;20207;-68
2023/04/13 07:22:30;;;;;;;3.83;1.50;;;;;;;;;;1746362;28;20293;-68
2023/04/13 07:23:23;;;;;;;4.90;1.70;;;;;;;;;;1746848;28;20202;-68
2023/04/13 07:24:14;;;;;;;5.53;2.03;;;;;;;;;;1747462;28;20206;-67
2023/04/13 07:25:06;;;;;;;4.18;2.00;;;;;;;;;;1746050;28;20223;-68
2023/04/13 07:25:57;;;;;;;2.70;1.60;;;;;;;;;;1746801;28;20202;-68
2023/04/13 07:26:49;;;;;;;3.95;1.95;;;;;;;;;;1745553;28;20199;-68
2023/04/13 07:27:41;;;;;;;2.35;1.55;;;;;;;;;;1746684;28;20194;-68
2023/04/13 07:28:33;;;;;;;4.30;1.70;;;;;;;;;;1746505;28;20198;-69
2023/04/13 07:29:24;;;;;;;4.72;1.90;;;;;;;;;;1746707;28;20242;-68
2023/04/13 07:30:16;;;;;;;3.63;1.65;;;;;;;;;;1745845;28;20621;-68
2023/04/13 07:31:07;;;;;;;5.65;1.30;;;;;;;;;;1746754;28;20709;-68
2023/04/13 07:32:00;;;;;;;3.10;1.38;;;;;;;;;;1746059;28;20673;-68
2023/04/13 07:32:51;;;;;;;3.47;1.80;;;;;;;;;;1743512;28;20339;-68
2023/04/13 07:33:43;;;;;;;2.20;1.38;;;;;;;;;;1739627;28;20199;-67
2023/04/13 07:34:35;;;;;;;4.70;1.40;;;;;;;;;;1740515;28;20203;-68
2023/04/13 07:35:27;;;;;;;6.38;1.70;;;;;;;;;;1739773;28;20285;-66
2023/04/13 07:36:20;;;;;;;3.85;1.45;;;;;;;;;;1739601;28;20210;-68
2023/04/13 07:37:12;;;;;;;4.47;1.70;;;;;;;;;;1747147;28;20199;-68
2023/04/13 07:38:03;;;;;;;3.95;1.50;;;;;;;;;;1747382;28;20268;-68
2023/04/13 07:38:55;;;;;;;2.80;1.30;;;;;;;;;;1747071;28;20282;-68
2023/04/13 07:39:47;;;;;;;5.90;1.95;;;;;;;;;;1746016;28;20244;-68
2023/04/13 07:40:39;;;;;;;3.78;1.48;;;;;;;;;;1746524;28;20217;-68
2023/04/13 07:41:31;;;;;;;5.70;2.75;;;;;;;;;;1747407;28;20220;-67
2023/04/13 07:42:23;;;;;;;5.15;2.55;;;;;;;;;;1746789;28;20202;-67
2023/04/13 07:43:14;;;;;;;5.72;2.25;;;;;;;;;;1746751;28;20207;-67
2023/04/13 07:44:06;;;;;;;5.75;1.60;;;;;;;;;;1745918;28;20214;-67
2023/04/13 07:44:58;;;;;;;4.10;1.55;;;;;;;;;;1742706;28;20214;-67
2023/04/13 07:45:49;;;;;;;4.50;1.52;;;;;;;;;;1748037;28;20685;-67
2023/04/13 07:46:41;;;;;;;4.45;1.42;;;;;;;;;;1742181;28;20198;-67
2023/04/13 07:47:32;;;;;;;5.82;1.50;;;;;;;;;;1753440;28;20198;-67
2023/04/13 07:48:24;;;;;;;4.00;1.77;;;;;;;;;;1747202;28;20198;-67
2023/04/13 07:49:15;;;;;;;4.90;1.73;;;;;;;;;;1747259;28;20253;-67
2023/04/13 07:50:08;;;;;;;4.10;1.63;;;;;;;;;;1746769;28;20202;-66
2023/04/13 07:51:01;;;;;;;5.68;1.48;;;;;;;;;;1745846;28;20222;-67
2023/04/13 07:51:53;;;;;;;6.82;1.40;;;;;;;;;;1746737;28;20439;-68
2023/04/13 07:52:45;;;;;;;5.53;1.83;;;;;;;;;;1746694;28;20255;-67
2023/04/13 07:53:36;;;;;;;4.85;1.60;;;;;;;;;;1746541;28;20213;-67
2023/04/13 07:54:28;;;;;;;4.10;1.50;;;;;;;;;;1746961;28;20208;-68
2023/04/13 07:55:19;;;;;;;5.90;1.35;;;;;;;;;;1747395;28;20237;-67
2023/04/13 07:56:12;;;;;;;3.58;1.50;;;;;;;;;;1746569;28;20244;-68
2023/04/13 07:57:04;;;;;;;4.68;1.60;;;;;;;;;;1745822;28;20415;-67
2023/04/13 07:57:55;;;;;;;6.72;1.40;;;;;;;;;;1746667;28;20963;-67
2023/04/13 07:58:47;;;;;;;5.82;1.73;;;;;;;;;;1747167;28;20210;-67
2023/04/13 07:59:39;;;;;;;5.82;1.70;;;;;;;;;;1747449;28;20202;-68
2023/04/13 08:00:30;;;;;;;2.10;1.60;;;;;;;;;;1746918;28;20214;-67
2023/04/13 08:01:22;;;;;;;5.90;1.50;;;;;;;;;;1747080;28;20610;-68
2023/04/13 08:02:15;;;;;;;2.33;1.52;;;;;;;;;;1747489;28;20736;-67
2023/04/13 08:03:07;;;;;;;6.45;2.20;;;;;;;;;;1746957;28;20198;-67
2023/04/13 08:03:58;;;;;;;4.00;1.40;;;;;;;;;;1747556;28;20202;-68
2023/04/13 08:04:51;;;;;;;5.18;1.40;;;;;;;;;;1747484;28;20203;-67
2023/04/13 08:05:43;;;;;;;5.82;1.67;;;;;;;;;;1748021;28;20194;-67
2023/04/13 08:06:34;;;;;;;4.80;1.38;;;;;;;;;;1746747;28;20221;-68
2023/04/13 08:07:28;;;;;;;4.28;1.50;;;;;;;;;;1747004;28;20209;-67
2023/04/13 08:08:19;;;;;;;4.50;1.90;;;;;;;;;;1747551;28;20203;-68
2023/04/13 08:09:11;;;;;;;2.25;1.40;;;;;;;;;;1747900;28;20612;-67
2023/04/13 08:10:03;;;;;;;5.22;1.50;;;;;;;;;;1748440;28;20210;-68
2023/04/13 08:10:55;;;;;;;3.53;1.10;;;;;;;;;;1747787;28;20356;-68
2023/04/13 08:11:48;;;;;;;7.57;1.65;;;;;;;;;;1747825;28;20289;-67
2023/04/13 08:12:40;;;;;;;3.13;1.60;;;;;;;;;;1748512;28;20194;-67
2023/04/13 08:13:31;;;;;;;3.53;1.60;;;;;;;;;;1748303;28;20224;-68
2023/04/13 08:14:23;;;;;;;4.65;1.80;;;;;;;;;;1748188;28;20212;-67
2023/04/13 08:15:14;;;;;;;2.60;1.17;;;;;;;;;;1748709;28;20202;-67
2023/04/13 08:16:07;;;;;;;5.63;1.73;;;;;;;;;;1747320;28;20623;-67
2023/04/13 08:16:58;;;;;;;6.90;1.88;;;;;;;;;;1747680;28;20206;-67
2023/04/13 08:17:50;;;;;;;6.63;1.60;;;;;;;;;;1748519;28;20281;-66
2023/04/13 08:18:41;;;;;;;5.82;1.85;;;;;;;;;;1748398;28;20222;-68
2023/04/13 08:19:34;;;;;;;6.85;1.88;;;;;;;;;;1748464;28;20198;-67
2023/04/13 08:20:25;;;;;;;5.07;1.52;;;;;;;;;;1747572;28;20199;-67
2023/04/13 08:21:17;;;;;;;7.45;2.08;;;;;;;;;;1748587;28;20700;-68
2023/04/13 08:22:09;;;;;;;4.45;1.77;;;;;;;;;;1747725;28;20198;-67
2023/04/13 08:23:04;;;;;;;4.97;1.67;;;;;;;;;;1748418;28;20198;-67
2023/04/13 08:23:55;;;;;;;3.53;1.73;;;;;;;;;;1748521;28;20623;-66
2023/04/13 08:24:47;;;;;;;5.47;1.77;;;;;;;;;;1747956;28;20822;-67
2023/04/13 08:25:39;;;;;;;5.68;1.88;;;;;;;;;;1747307;28;20218;-68
2023/04/13 08:26:31;;;;;;;7.15;1.73;;;;;;;;;;1747098;28;20660;-67
2023/04/13 08:27:22;;;;;;;3.97;1.90;;;;;;;;;;1746895;28;20199;-68
2023/04/13 08:28:14;;;;;;;4.32;1.70;;;;;;;;;;1747736;28;20198;-67
2023/04/13 08:29:05;;;;;;;3.50;1.77;;;;;;;;;;1748498;28;20696;-67
2023/04/13 08:30:00;;;;;;;6.05;1.80;;;;;;;;;;1748490;28;20236;-67
2023/04/13 08:30:51;;;;;;;3.90;1.65;;;;;;;;;;1748512;28;20226;-67
2023/04/13 08:31:43;;;;;;;8.07;1.95;;;;;;;;;;1747732;28;20195;-68
2023/04/13 08:32:34;;;;;;;5.53;1.60;;;;;;;;;;1747695;28;20763;-67
2023/04/13 08:33:27;;;;;;;4.70;1.45;;;;;;;;;;1748437;28;20575;-68
2023/04/13 08:34:20;;;;;;;4.55;1.63;;;;;;;;;;1748084;28;20259;-67
2023/04/13 08:35:11;;;;;;;5.47;1.73;;;;;;;;;;1748390;28;20202;-67
2023/04/13 08:36:03;;;;;;;4.32;1.63;;;;;;;;;;1747586;28;20198;-67
2023/04/13 08:36:56;;;;;;;5.80;2.15;;;;;;;;;;1746820;28;20754;-67
2023/04/13 08:37:47;;;;;;;5.85;1.60;;;;;;;;;;1748482;28;20564;-68
2023/04/13 08:38:41;;;;;;;4.03;2.05;;;;;;;;;;1748146;28;20249;-67
2023/04/13 08:39:32;;;;;;;3.00;1.70;;;;;;;;;;1748482;28;20405;-67
2023/04/13 08:40:25;;;;;;;8.60;1.63;;;;;;;;;;1748373;28;20205;-68
2023/04/13 08:41:17;;;;;;;4.97;2.10;;;;;;;;;;1747785;28;20217;-67
2023/04/13 08:42:09;;;;;;;4.30;1.17;;;;;;;;;;1748440;28;20681;-67
2023/04/13 08:43:01;;;;;;;3.28;1.30;;;;;;;;;;1748339;28;20567;-68
2023/04/13 08:43:53;;;;;;;7.13;1.58;;;;;;;;;;1748507;28;20659;-68
2023/04/13 08:44:45;;;;;;;4.20;1.55;;;;;;;;;;1747634;28;20571;-68
2023/04/13 08:45:41;;;;;;;6.57;1.73;;;;;;;;;;1746481;28;20207;-67
2023/04/13 08:46:33;;;;;;;3.83;1.60;;;;;;;;;;1746992;28;20194;-67
2023/04/13 08:47:25;;;;;;;6.38;2.70;;;;;;;;;;1748249;28;20711;-67
2023/04/13 08:48:18;;;;;;;6.80;1.80;;;;;;;;;;1748405;28;20202;-67
2023/04/13 08:49:09;;;;;;;4.53;2.63;;;;;;;;;;1746735;28;20199;-68
2023/04/13 08:50:02;;;;;;;4.45;1.45;;;;;;;;;;1748333;28;20198;-67
2023/04/13 08:50:57;;;;;;;5.45;1.80;;;;;;;;;;1748331;28;20219;-67
2023/04/13 08:51:51;;;;;;;3.55;1.67;;;;;;;;;;1747677;28;20190;-68
2023/04/13 08:52:43;;;;;;;3.30;1.70;;;;;;;;;;1748246;28;20213;-67
2023/04/13 08:53:34;;;;;;;5.18;1.90;;;;;;;;;;1747699;28;20653;-68
2023/04/13 08:54:28;;;;;;;3.83;1.45;;;;;;;;;;1747074;28;20252;-68
2023/04/13 08:55:19;;;;;;;4.03;1.90;;;;;;;;;;1748309;28;20198;-67
2023/04/13 08:56:14;;;;;;;4.30;1.63;;;;;;;;;;1748283;28;20221;-67
2023/04/13 08:57:06;;;;;;;5.40;1.60;;;;;;;;;;1748184;28;20214;-67
2023/04/13 08:57:58;;;;;;;7.57;1.85;;;;;;;;;;1748344;28;20191;-67
2023/04/13 08:58:51;;;;;;;3.20;1.38;;;;;;;;;;1748241;28;20789;-67
2023/04/13 08:59:44;;;;;;;5.88;1.63;;;;;;;;;;1748066;28;20205;-67
2023/04/13 09:00:37;;;;;;;4.07;1.63;;;;;;;;;;1748391;28;21143;-67
2023/04/13 09:01:29;;;;;;;3.05;1.40;;;;;;;;;;1745676;28;20240;-67
2023/04/13 09:02:23;;;;;;;4.85;1.77;;;;;;;;;;1739710;28;20211;-67
2023/04/13 09:03:17;;;;;;;6.03;1.67;;;;;;;;;;1740091;28;20210;-67
2023/04/13 09:04:09;;;;;;;3.75;1.30;;;;;;;;;;1742607;28;20206;-66
2023/04/13 09:05:05;;;;;;;5.68;1.70;;;;;;;;;;1748274;28;20233;-67
2023/04/13 09:05:58;;;;;;;2.00;1.17;;;;;;;;;;1748385;28;20885;-67
2023/04/13 09:06:51;;;;;;;9.10;2.13;;;;;;;;;;1747402;28;20218;-68
2023/04/13 09:07:45;;;;;;;5.22;1.65;;;;;;;;;;1748223;28;20666;-67
2023/04/13 09:08:38;;;;;;;4.93;1.38;;;;;;;;;;1747494;28;20727;-67
2023/04/13 09:09:31;;;;;;;5.82;1.58;;;;;;;;;;1747331;28;20206;-67
2023/04/13 09:10:25;;;;;;;5.90;2.10;;;;;;;;;;1740248;28;20203;-67
2023/04/13 09:11:16;;;;;;;3.45;1.67;;;;;;;;;;1739939;28;20214;-67
2023/04/13 09:12:08;;;;;;;5.50;1.83;;;;;;;;;;1741396;28;20205;-66
2023/04/13 09:13:00;;;;;;;4.22;1.65;;;;;;;;;;1741421;28;20207;-67
2023/04/13 09:13:52;;;;;;;7.15;2.30;;;;;;;;;;1741317;28;20226;-67
2023/04/13 09:14:43;;;;;;;6.50;1.92;;;;;;;;;;1746312;28;20195;-67
2023/04/13 09:15:36;;;;;;;3.75;1.30;;;;;;;;;;1748331;28;20285;-66
2023/04/13 09:16:27;;;;;;;4.85;1.98;;;;;;;;;;1747421;28;20218;-67
2023/04/13 09:17:24;;;;;;;5.95;1.65;;;;;;;;;;1747993;28;20233;-67
2023/04/13 09:18:16;;;;;;;5.28;1.60;;;;;;;;;;1748220;28;20217;-67
2023/04/13 09:19:07;;;;;;;6.25;2.10;;;;;;;;;;1747796;28;20229;-66
2023/04/13 09:20:12;;;;;;;4.07;1.55;;;;;;;;;;1748005;28;20198;-67
2023/04/13 09:21:04;;;;;;;5.20;1.63;;;;;;;;;;1747542;28;20203;-67
2023/04/13 09:21:55;;;;;;;5.32;1.40;;;;;;;;;;1746517;28;20202;-67
2023/04/13 09:22:47;;;;;;;3.60;1.40;;;;;;;;;;1748077;28;20538;-67
2023/04/13 09:23:38;;;;;;;5.03;1.80;;;;;;;;;;1748129;28;20696;-67
2023/04/13 09:24:40;;;;;;;7.22;1.52;;;;;;;;;;1746010;28;20828;-67
2023/04/13 09:25:31;;;;;;;6.05;1.90;;;;;;;;;;1747301;28;20199;-66
2023/04/13 09:26:23;;;;;;;5.53;1.63;;;;;;;;;;1747303;28;20198;-66
2023/04/13 09:27:19;;;;;;;3.38;1.50;;;;;;;;;;1747188;28;20289;-67
2023/04/13 09:28:16;;;;;;;3.25;1.42;;;;;;;;;;1748179;28;20801;-67
2023/04/13 09:29:09;;;;;;;3.80;1.88;;;;;;;;;;1747339;28;20234;-67
2023/04/13 09:30:02;;;;;;;6.63;2.50;;;;;;;;;;1748016;28;20285;-67
2023/04/13 09:31:01;;;;;;;5.75;1.65;;;;;;;;;;1747903;28;20229;-67
2023/04/13 09:31:53;;;;;;;2.30;1.30;;;;;;;;;;1747293;28;20681;-68
2023/04/13 09:32:44;;;;;;;6.82;1.65;;;;;;;;;;1746632;28;20234;-67
2023/04/13 09:33:44;;;;;;;6.15;1.85;;;;;;;;;;1746922;28;20198;-67
2023/04/13 09:34:36;;;;;;;6.43;1.80;;;;;;;;;;1746301;28;20621;-67
2023/04/13 09:35:29;;;;;;;3.72;1.50;;;;;;;;;;1747966;28;20210;-67
2023/04/13 09:36:22;;;;;;;5.93;1.50;;;;;;;;;;1747230;28;20198;-67
2023/04/13 09:37:14;;;;;;;5.57;1.60;;;;;;;;;;1744887;28;20727;-67
2023/04/13 09:38:07;;;;;;;6.43;1.60;;;;;;;;;;1748055;28;20293;-67
2023/04/13 09:38:58;;;;;;;4.20;2.53;;;;;;;;;;1747948;28;20206;-67
2023/04/13 09:39:52;;;;;;;4.32;1.55;;;;;;;;;;1748125;28;20259;-67
2023/04/13 09:40:53;;;;;;;5.90;1.83;;;;;;;;;;1747782;28;20230;-67
2023/04/13 09:41:48;;;;;;;2.85;1.55;;;;;;;;;;1747901;28;20576;-67
2023/04/13 09:42:40;;;;;;;4.25;1.70;;;;;;;;;;1747260;28;20236;-68
2023/04/13 09:43:35;;;;;;;4.53;1.73;;;;;;;;;;1747107;28;20229;-67
2023/04/13 09:44:29;;;;;;;3.13;1.70;;;;;;;;;;1748119;28;20615;-67
2023/04/13 09:45:21;;;;;;;6.15;1.45;;;;;;;;;;1747519;28;20199;-67
2023/04/13 09:46:13;;;;;;;4.15;1.60;;;;;;;;;;1747735;28;20191;-67
2023/04/13 09:47:06;;;;;;;6.80;2.10;;;;;;;;;;1747633;28;20202;-67
2023/04/13 09:48:01;;;;;;;6.78;1.90;;;;;;;;;;1748057;28;20286;-67
2023/04/13 09:49:00;;;;;;;2.90;1.55;;;;;;;;;;1748042;28;20205;-67
2023/04/13 09:49:52;;;;;;;7.20;1.70;;;;;;;;;;1747973;28;20608;-67
2023/04/13 09:50:44;;;;;;;4.45;1.70;;;;;;;;;;1747745;28;20331;-67
2023/04/13 09:51:38;;;;;;;4.95;1.40;;;;;;;;;;1748045;28;20673;-67
2023/04/13 09:52:30;;;;;;;7.32;1.45;;;;;;;;;;1747611;28;20293;-67
2023/04/13 09:53:21;;;;;;;4.38;1.70;;;;;;;;;;1745356;28;20205;-68
2023/04/13 09:54:13;;;;;;;4.35;1.20;;;;;;;;;;1747900;28;20293;-67
2023/04/13 09:55:15;;;;;;;4.32;1.65;;;;;;;;;;1747527;28;20198;-67
2023/04/13 09:56:07;;;;;;;3.67;1.50;;;;;;;;;;1747944;28;20191;-68
2023/04/13 09:56:58;;;;;;;5.05;1.65;;;;;;;;;;1746733;28;20551;-67
2023/04/13 09:57:51;;;;;;;4.72;1.58;;;;;;;;;;1747936;28;20574;-67
2023/04/13 09:58:43;;;;;;;4.60;1.65;;;;;;;;;;1747617;28;20588;-67
2023/04/13 09:59:36;;;;;;;3.17;1.25;;;;;;;;;;1747810;28;20222;-67
2023/04/13 10:00:27;;;;;;;3.70;1.45;;;;;;;;;;1747720;28;20203;-67
2023/04/13 10:01:19;;;;;;;3.50;1.42;;;;;;;;;;1746360;28;20224;-68
2023/04/13 10:02:12;;;;;;;5.03;1.73;;;;;;;;;;1740350;28;20238;-67
2023/04/13 10:03:04;;;;;;;10.77;2.03;;;;;;;;;;1740508;28;20195;-67
2023/04/13 10:03:55;;;;;;;2.90;1.42;;;;;;;;;;1740954;28;20614;-68
2023/04/13 10:04:47;;;;;;;5.53;1.67;;;;;;;;;;1740605;28;20201;-67
2023/04/13 10:05:40;;;;;;;6.38;2.05;;;;;;;;;;1747467;28;20194;-67
2023/04/13 10:06:34;;;;;;;4.78;1.77;;;;;;;;;;1746958;28;20251;-67
2023/04/13 10:07:28;;;;;;;2.70;1.13;;;;;;;;;;1746180;28;20207;-67
2023/04/13 10:08:21;;;;;;;3.15;1.25;;;;;;;;;;1747604;28;20281;-67
2023/04/13 10:09:13;;;;;;;3.53;1.45;;;;;;;;;;1747983;28;20202;-66
2023/04/13 10:10:07;;;;;;;6.40;1.65;;;;;;;;;;1747717;28;20244;-67
2023/04/13 10:11:00;;;;;;;4.28;1.67;;;;;;;;;;1746975;28;20568;-67
2023/04/13 10:11:53;;;;;;;6.82;1.92;;;;;;;;;;1746938;28;20601;-67
2023/04/13 10:12:47;;;;;;;6.75;1.65;;;;;;;;;;1746208;28;20202;-68
2023/04/13 10:13:43;;;;;;;4.00;1.50;;;;;;;;;;1747765;28;20665;-68